Terminal Aerodrome Forecast
Issued by NWS

Home | Current Version | Previous Version | Text Only | Print | Product List | Glossary On
Versions: 1 2 3 4 5 6 7 8 9 10 11 12 13 14 15 16
000
FTUS46 KMTR 281720
TAFMRY
TAF
KMRY 281720Z 2818/2918 30009KT P6SM SKC
     FM282200 28012G18KT P6SM SKC
     FM290300 25009KT P6SM SKC
     FM290900 VRB04KT P6SM SCT250
     FM291300 10004KT P6SM BKN015
     FM291600 08003KT P6SM FEW200=

USA.gov is the U.S. government's official web portal to all federal, state and local government web resources and services.